createdAt,value
2022-08-04T00:00:24.905Z,58
2022-08-04T00:01:11.055Z,58
2022-08-04T00:01:57.024Z,58
2022-08-04T00:02:42.880Z,58
2022-08-04T00:03:28.899Z,58
2022-08-04T00:04:14.890Z,58
2022-08-04T00:05:00.871Z,58
2022-08-04T00:05:46.932Z,58
2022-08-04T00:06:32.863Z,58
2022-08-04T00:07:18.891Z,58
2022-08-04T00:08:04.993Z,59
2022-08-04T00:08:53.022Z,58
2022-08-04T00:09:36.893Z,58
2022-08-04T00:10:23.042Z,58
2022-08-04T00:11:08.931Z,58
2022-08-04T00:11:55.438Z,59
2022-08-04T00:12:40.934Z,59
2022-08-04T00:13:26.928Z,58
2022-08-04T00:14:12.913Z,58
2022-08-04T00:14:58.930Z,59
2022-08-04T00:15:45.187Z,59
2022-08-04T00:16:32.745Z,58
2022-08-04T00:17:16.912Z,57
2022-08-04T00:18:02.901Z,58
2022-08-04T00:18:48.926Z,58
2022-08-04T00:19:34.926Z,58
2022-08-04T00:20:21.249Z,58
2022-08-04T00:21:06.915Z,58
2022-08-04T00:21:52.988Z,58
2022-08-04T00:22:38.905Z,57
2022-08-04T00:23:24.958Z,58
2022-08-04T00:24:12.834Z,57
2022-08-04T00:24:57.034Z,58
2022-08-04T00:25:42.965Z,58
2022-08-04T00:26:28.903Z,58
2022-08-04T00:27:14.972Z,58
2022-08-04T00:28:00.952Z,58
2022-08-04T00:28:46.982Z,58
2022-08-04T00:29:32.931Z,59
2022-08-04T00:30:18.996Z,58
2022-08-04T00:31:04.947Z,57
2022-08-04T00:31:56.842Z,58
2022-08-04T00:32:36.981Z,58
2022-08-04T00:33:22.976Z,57
2022-08-04T00:34:08.945Z,57
2022-08-04T00:34:55.835Z,58
2022-08-04T00:35:40.956Z,58
2022-08-04T00:36:26.989Z,57
2022-08-04T00:37:13.068Z,58
2022-08-04T00:37:59.267Z,59
2022-08-04T00:38:45.078Z,58
2022-08-04T00:39:31.166Z,57
2022-08-04T00:40:16.988Z,59
2022-08-04T00:41:02.984Z,59
2022-08-04T00:41:56.792Z,58
2022-08-04T00:42:35.058Z,58
2022-08-04T00:43:21.049Z,58
2022-08-04T00:44:06.994Z,58
2022-08-04T00:44:53.055Z,58
2022-08-04T00:46:10.936Z,59
2022-08-04T00:46:24.970Z,59
2022-08-04T00:47:11.113Z,58
2022-08-04T00:47:57.015Z,58
2022-08-04T00:48:43.030Z,57
2022-08-04T00:49:28.997Z,57
2022-08-04T00:50:14.992Z,57
2022-08-04T00:51:01.060Z,58
2022-08-04T00:51:47.009Z,58
2022-08-04T00:52:33.900Z,57
2022-08-04T00:53:19.037Z,57
2022-08-04T00:54:05.083Z,57
2022-08-04T00:54:51.183Z,58
2022-08-04T00:55:37.052Z,57
2022-08-04T00:56:23.039Z,58
2022-08-04T00:57:09.083Z,58
2022-08-04T00:57:55.751Z,58
2022-08-04T00:58:41.036Z,58
2022-08-04T00:59:27.091Z,57
2022-08-04T01:00:13.201Z,58
2022-08-04T01:00:59.047Z,57
2022-08-04T01:01:45.176Z,57
2022-08-04T01:02:31.218Z,56
2022-08-04T01:03:17.030Z,56
2022-08-04T01:04:03.056Z,56
2022-08-04T01:04:49.030Z,57
2022-08-04T01:05:37.777Z,57
2022-08-04T01:06:21.165Z,58
2022-08-04T01:07:07.089Z,57
2022-08-04T01:07:53.072Z,57
2022-08-04T01:08:39.068Z,57
2022-08-04T01:09:25.109Z,58
2022-08-04T01:10:15.550Z,58
2022-08-04T01:10:57.113Z,58
2022-08-04T01:11:56.497Z,59
2022-08-04T01:12:29.163Z,58
2022-08-04T01:13:15.663Z,58
2022-08-04T01:14:01.067Z,58
2022-08-04T01:14:47.065Z,58
2022-08-04T01:15:33.123Z,59
2022-08-04T01:16:19.106Z,58
2022-08-04T01:17:05.088Z,58
2022-08-04T01:17:51.093Z,58
2022-08-04T01:18:37.182Z,58
2022-08-04T01:19:23.138Z,58
2022-08-04T01:20:09.078Z,58
2022-08-04T01:20:55.667Z,58
2022-08-04T01:21:41.164Z,58
2022-08-04T01:22:27.170Z,59
2022-08-04T01:23:13.105Z,59
2022-08-04T01:23:59.129Z,59
2022-08-04T01:24:45.189Z,59
2022-08-04T01:25:31.254Z,59
2022-08-04T01:26:43.958Z,60
2022-08-04T01:27:03.806Z,58
2022-08-04T01:27:49.103Z,59
2022-08-04T01:28:35.065Z,58
2022-08-04T01:29:21.085Z,59
2022-08-04T01:30:07.235Z,59
2022-08-04T01:30:53.184Z,59
2022-08-04T01:31:39.161Z,59
2022-08-04T01:32:25.889Z,59
2022-08-04T01:33:11.194Z,59
2022-08-04T01:34:03.589Z,60
2022-08-04T01:34:43.164Z,60
2022-08-04T01:35:47.868Z,59
2022-08-04T01:36:15.136Z,59
2022-08-04T01:37:01.126Z,59
2022-08-04T01:37:47.145Z,59
2022-08-04T01:38:33.153Z,59
2022-08-04T01:39:19.229Z,60
2022-08-04T01:40:05.190Z,60
2022-08-04T01:40:51.166Z,60
2022-08-04T01:41:37.128Z,60
2022-08-04T01:42:31.966Z,60
2022-08-04T01:43:09.170Z,62
2022-08-04T01:43:55.689Z,60
2022-08-04T01:44:41.202Z,60
2022-08-04T01:45:27.232Z,61
2022-08-04T01:46:13.233Z,61
2022-08-04T01:46:59.259Z,60
2022-08-04T01:47:45.429Z,60
2022-08-04T01:48:31.316Z,61
2022-08-04T01:49:17.201Z,61
2022-08-04T01:50:03.169Z,60
2022-08-04T01:50:52.823Z,60
2022-08-04T01:51:35.181Z,60
2022-08-04T01:52:21.227Z,61
2022-08-04T01:53:07.178Z,60
2022-08-04T01:53:53.209Z,61
2022-08-04T01:54:39.213Z,61
2022-08-04T01:55:25.220Z,60
2022-08-04T01:56:11.198Z,61
2022-08-04T01:56:57.162Z,61
2022-08-04T01:57:43.225Z,61
2022-08-04T01:58:29.197Z,60
2022-08-04T01:59:15.217Z,60
2022-08-04T02:00:01.989Z,61
2022-08-04T02:00:47.173Z,60
2022-08-04T02:01:33.332Z,59
2022-08-04T02:02:19.375Z,60
2022-08-04T02:03:05.382Z,60
2022-08-04T02:04:21.273Z,61
2022-08-04T02:04:37.214Z,60
2022-08-04T02:05:23.242Z,60
2022-08-04T02:06:09.190Z,61
2022-08-04T02:06:55.689Z,60
2022-08-04T02:07:41.268Z,60
2022-08-04T02:08:27.542Z,60
2022-08-04T02:09:13.229Z,61
2022-08-04T02:09:59.216Z,60
2022-08-04T02:10:45.248Z,60
2022-08-04T02:11:31.350Z,61
2022-08-04T02:12:17.412Z,60
2022-08-04T02:13:03.257Z,60
2022-08-04T02:13:49.300Z,61
2022-08-04T02:14:35.227Z,60
2022-08-04T02:15:21.715Z,61
2022-08-04T02:16:07.257Z,62
2022-08-04T02:16:52.940Z,62
2022-08-04T02:17:39.274Z,61
2022-08-04T02:18:25.263Z,61
2022-08-04T02:19:14.663Z,61
2022-08-04T02:19:57.254Z,60
2022-08-04T02:20:43.280Z,61
2022-08-04T02:21:42.423Z,61
2022-08-04T02:22:15.246Z,61
2022-08-04T02:23:01.249Z,60
2022-08-04T02:23:47.290Z,61
2022-08-04T02:24:33.346Z,61
2022-08-04T02:25:19.303Z,61
2022-08-04T02:26:05.279Z,61
2022-08-04T02:26:51.260Z,61
2022-08-04T02:27:59.184Z,61
2022-08-04T02:28:23.416Z,61
2022-08-04T02:29:09.267Z,61
2022-08-04T02:29:55.646Z,61
2022-08-04T02:30:41.319Z,61
2022-08-04T02:31:28.756Z,61
2022-08-04T02:32:13.326Z,61
2022-08-04T02:32:59.273Z,61
2022-08-04T02:33:45.410Z,61
2022-08-04T02:34:31.446Z,61
2022-08-04T02:35:17.333Z,62
2022-08-04T02:36:02.645Z,62
2022-08-04T02:36:49.284Z,62
2022-08-04T02:37:35.298Z,62
2022-08-04T02:38:25.732Z,61
2022-08-04T02:39:07.349Z,61
2022-08-04T02:39:53.351Z,61
2022-08-04T02:40:39.263Z,62
2022-08-04T02:41:25.277Z,61
2022-08-04T02:42:11.573Z,61
2022-08-04T02:42:57.343Z,62
2022-08-04T02:43:51.363Z,62
2022-08-04T02:44:29.308Z,62
2022-08-04T02:45:15.368Z,61
2022-08-04T02:46:01.381Z,61
2022-08-04T02:46:47.332Z,62
2022-08-04T02:48:29.410Z,62
2022-08-04T02:49:05.310Z,62
2022-08-04T02:49:51.328Z,62
2022-08-04T02:50:37.313Z,62
2022-08-04T02:51:23.307Z,62
2022-08-04T02:52:09.309Z,62
2022-08-04T02:52:55.713Z,63
2022-08-04T02:53:41.412Z,62
2022-08-04T02:54:33.517Z,62
2022-08-04T02:55:13.341Z,62
2022-08-04T02:55:59.340Z,62
2022-08-04T02:56:45.482Z,62
2022-08-04T02:57:31.460Z,63
2022-08-04T02:58:17.362Z,63
2022-08-04T02:59:03.361Z,63
2022-08-04T02:59:49.357Z,62
2022-08-04T03:00:35.429Z,62
2022-08-04T03:01:21.462Z,62
2022-08-04T03:02:07.414Z,62
2022-08-04T03:02:53.363Z,62
2022-08-04T03:03:39.362Z,63
2022-08-04T03:04:25.504Z,63
2022-08-04T03:05:11.417Z,63
2022-08-04T03:06:00.930Z,62
2022-08-04T03:06:43.390Z,63
2022-08-04T03:07:29.336Z,62
2022-08-04T03:08:15.344Z,62
2022-08-04T03:09:01.419Z,62
2022-08-04T03:09:47.387Z,63
2022-08-04T03:10:33.436Z,63
2022-08-04T03:11:19.391Z,63
2022-08-04T03:12:05.418Z,63
2022-08-04T03:12:51.388Z,63
2022-08-04T03:13:37.382Z,62
2022-08-04T03:14:23.391Z,62
2022-08-04T03:15:09.441Z,62
2022-08-04T03:15:55.998Z,63
2022-08-04T03:16:41.417Z,63
2022-08-04T03:17:27.394Z,63
2022-08-04T03:18:13.548Z,63
2022-08-04T03:18:59.362Z,63
2022-08-04T03:19:45.455Z,63
2022-08-04T03:20:31.489Z,63
2022-08-04T03:21:17.459Z,63
2022-08-04T03:22:03.453Z,63
2022-08-04T03:23:12.004Z,63
2022-08-04T03:23:35.387Z,64
2022-08-04T03:24:21.428Z,63
2022-08-04T03:25:07.437Z,63
2022-08-04T03:25:56.571Z,64
2022-08-04T03:26:39.436Z,63
2022-08-04T03:27:25.412Z,63
2022-08-04T03:28:11.467Z,63
2022-08-04T03:28:57.374Z,63
2022-08-04T03:29:43.425Z,63
2022-08-04T03:30:29.494Z,63
2022-08-04T03:31:15.398Z,63
2022-08-04T03:32:00.824Z,63
2022-08-04T03:32:47.487Z,62
2022-08-04T03:33:33.458Z,63
2022-08-04T03:34:19.420Z,63
2022-08-04T03:35:05.477Z,63
2022-08-04T03:35:51.423Z,62
2022-08-04T03:36:37.412Z,63
2022-08-04T03:37:23.530Z,62
2022-08-04T03:38:09.417Z,63
2022-08-04T03:38:56.336Z,62
2022-08-04T03:39:41.548Z,62
2022-08-04T03:40:27.449Z,62
2022-08-04T03:41:13.463Z,63
2022-08-04T03:42:03.533Z,63
2022-08-04T03:42:45.613Z,62
2022-08-04T03:43:58.699Z,62
2022-08-04T03:44:17.438Z,62
2022-08-04T03:45:17.390Z,62
2022-08-04T03:45:49.457Z,62
2022-08-04T03:46:35.486Z,63
2022-08-04T03:47:21.648Z,62
2022-08-04T03:48:07.441Z,63
2022-08-04T03:48:58.519Z,62
2022-08-04T03:49:39.456Z,62
2022-08-04T03:50:25.444Z,62
2022-08-04T03:51:32.581Z,62
2022-08-04T03:51:57.435Z,63
2022-08-04T03:52:43.466Z,63
2022-08-04T03:53:29.454Z,63
2022-08-04T03:54:15.507Z,63
2022-08-04T03:55:01.662Z,63
2022-08-04T03:55:47.489Z,63
2022-08-04T03:56:33.536Z,63
2022-08-04T03:57:19.755Z,63
2022-08-04T03:58:05.477Z,63
2022-08-04T03:58:51.504Z,63
2022-08-04T03:59:37.496Z,63
2022-08-04T04:00:23.595Z,64
2022-08-04T04:01:10.885Z,63
2022-08-04T04:02:01.972Z,64
2022-08-04T04:02:41.598Z,64
2022-08-04T04:03:28.582Z,64
2022-08-04T04:04:13.507Z,64
2022-08-04T04:04:59.482Z,63
2022-08-04T04:05:59.948Z,64
2022-08-04T04:06:31.627Z,64
2022-08-04T04:07:17.553Z,64
2022-08-04T04:08:03.921Z,64
2022-08-04T04:08:49.816Z,64
2022-08-04T04:09:56.865Z,64
2022-08-04T04:10:26.660Z,64
2022-08-04T04:11:07.549Z,64
2022-08-04T04:11:54.475Z,64
2022-08-04T04:12:39.545Z,64
2022-08-04T04:13:25.547Z,64
2022-08-04T04:14:11.667Z,64
2022-08-04T04:14:57.544Z,64
2022-08-04T04:15:48.246Z,64
2022-08-04T04:16:29.591Z,64
2022-08-04T04:17:15.597Z,64
2022-08-04T04:18:01.611Z,64
2022-08-04T04:18:47.685Z,64
2022-08-04T04:19:33.550Z,64
2022-08-04T04:20:19.599Z,63
2022-08-04T04:21:05.584Z,64
2022-08-04T04:21:51.549Z,64
2022-08-04T04:22:38.439Z,64
2022-08-04T04:23:23.574Z,64
2022-08-04T04:24:09.648Z,64
2022-08-04T04:24:55.663Z,64
2022-08-04T04:25:48.864Z,64
2022-08-04T04:26:27.640Z,64
2022-08-04T04:27:13.661Z,64
2022-08-04T04:28:44.582Z,65
2022-08-04T04:29:31.724Z,65
2022-08-04T04:30:17.640Z,65
2022-08-04T04:31:03.649Z,65
2022-08-04T04:31:49.732Z,64
2022-08-04T04:32:35.743Z,65
2022-08-04T04:33:21.587Z,65
2022-08-04T04:34:07.646Z,65
2022-08-04T04:34:53.649Z,64
2022-08-04T04:35:39.637Z,66
2022-08-04T04:36:25.628Z,65
2022-08-04T04:37:11.815Z,65
2022-08-04T04:37:57.607Z,64
2022-08-04T04:38:43.719Z,63
2022-08-04T04:39:29.726Z,63
2022-08-04T04:40:15.668Z,63
2022-08-04T04:41:01.628Z,64
2022-08-04T04:41:47.609Z,64
2022-08-04T04:42:33.637Z,65
2022-08-04T04:43:19.660Z,64
2022-08-04T04:44:05.674Z,63
2022-08-04T04:44:51.699Z,63
2022-08-04T04:45:37.771Z,62
2022-08-04T04:46:23.624Z,63
2022-08-04T04:47:09.675Z,64
2022-08-04T04:48:09.091Z,64
2022-08-04T04:48:41.833Z,64
2022-08-04T04:49:27.684Z,64
2022-08-04T04:50:13.662Z,64
2022-08-04T04:50:59.665Z,64
2022-08-04T04:51:45.790Z,64
2022-08-04T04:52:31.778Z,62
2022-08-04T04:53:17.691Z,62
2022-08-04T04:54:03.672Z,62
2022-08-04T04:54:49.732Z,62
2022-08-04T04:55:35.756Z,64
2022-08-04T04:56:21.722Z,64
2022-08-04T04:57:07.692Z,64
2022-08-04T04:57:55.167Z,64
2022-08-04T04:58:39.694Z,64
2022-08-04T04:59:25.697Z,63
2022-08-04T05:00:12.032Z,63
2022-08-04T05:00:57.764Z,63
2022-08-04T05:01:43.788Z,62
2022-08-04T05:02:29.665Z,62
2022-08-04T05:03:15.689Z,62
2022-08-04T05:04:01.868Z,65
2022-08-04T05:04:47.717Z,64
2022-08-04T05:05:33.688Z,63
2022-08-04T05:06:19.675Z,63
2022-08-04T05:07:05.811Z,63
2022-08-04T05:07:51.718Z,64
2022-08-04T05:08:43.239Z,64
2022-08-04T05:09:23.721Z,64
2022-08-04T05:10:09.737Z,64
2022-08-04T05:10:55.759Z,64
2022-08-04T05:11:41.947Z,64
2022-08-04T05:14:30.774Z,64
2022-08-04T05:14:45.867Z,65
2022-08-04T05:15:31.941Z,65
2022-08-04T05:16:17.726Z,64
2022-08-04T05:17:03.755Z,64
2022-08-04T05:17:49.715Z,64
2022-08-04T05:18:35.878Z,65
2022-08-04T05:19:21.853Z,65
2022-08-04T05:20:07.735Z,65
2022-08-04T05:20:53.835Z,65
2022-08-04T05:21:39.785Z,64
2022-08-04T05:22:25.736Z,64
2022-08-04T05:23:11.911Z,65
2022-08-04T05:23:57.734Z,65
2022-08-04T05:24:43.827Z,65
2022-08-04T05:25:29.738Z,64
2022-08-04T05:26:15.761Z,65
2022-08-04T05:27:01.783Z,64
2022-08-04T05:27:47.781Z,65
2022-08-04T05:28:33.772Z,65
2022-08-04T05:29:19.815Z,64
2022-08-04T05:30:05.827Z,64
2022-08-04T05:30:51.829Z,64
2022-08-04T05:31:37.807Z,64
2022-08-04T05:32:23.773Z,64
2022-08-04T05:33:09.843Z,63
2022-08-04T05:33:56.103Z,64
2022-08-04T05:34:41.981Z,65
2022-08-04T05:35:47.945Z,64
2022-08-04T05:36:59.797Z,61
2022-08-04T05:37:45.924Z,61
2022-08-04T05:38:31.875Z,62
2022-08-04T05:39:17.829Z,62
2022-08-04T05:40:03.834Z,63
2022-08-04T05:40:49.839Z,62
2022-08-04T05:41:45.424Z,62
2022-08-04T05:42:21.967Z,61
2022-08-04T05:43:07.808Z,63
2022-08-04T05:43:53.934Z,61
2022-08-04T05:44:39.788Z,61
2022-08-04T05:45:25.917Z,60
2022-08-04T05:46:11.982Z,59
2022-08-04T05:46:57.790Z,60
2022-08-04T05:47:43.935Z,60
2022-08-04T05:48:29.810Z,60
2022-08-04T05:49:16.598Z,60
2022-08-04T05:50:03.250Z,59
2022-08-04T05:50:47.835Z,60
2022-08-04T05:51:33.807Z,60
2022-08-04T05:52:19.886Z,59
2022-08-04T05:53:05.827Z,61
2022-08-04T05:53:51.807Z,60
2022-08-04T05:54:37.817Z,61
2022-08-04T05:55:59.195Z,59
2022-08-04T05:56:09.832Z,59
2022-08-04T05:56:55.864Z,59
2022-08-04T05:57:42.104Z,58
2022-08-04T05:58:27.906Z,60
2022-08-04T05:59:13.842Z,60
2022-08-04T05:59:59.920Z,59
2022-08-04T06:00:52.566Z,58
2022-08-04T06:01:32.018Z,59
2022-08-04T06:02:17.985Z,59
2022-08-04T06:03:03.952Z,59
2022-08-04T06:03:49.889Z,58
2022-08-04T06:04:36.018Z,58
2022-08-04T06:05:21.858Z,59
2022-08-04T06:06:07.916Z,59
2022-08-04T06:06:53.890Z,59
2022-08-04T06:08:07.788Z,59
2022-08-04T06:08:25.860Z,59
2022-08-04T06:09:12.073Z,60
2022-08-04T06:09:57.859Z,58
2022-08-04T06:10:44.100Z,58
2022-08-04T06:11:30.029Z,58
2022-08-04T06:12:16.297Z,57
2022-08-04T06:13:02.039Z,56
2022-08-04T06:13:50.820Z,57
2022-08-04T06:14:34.058Z,56
2022-08-04T06:15:20.089Z,57
2022-08-04T06:16:06.050Z,56
2022-08-04T06:16:52.010Z,57
2022-08-04T06:19:56.218Z,55
2022-08-04T06:20:49.923Z,54
2022-08-04T06:21:28.000Z,54
2022-08-04T06:22:14.060Z,53
2022-08-04T06:23:00.136Z,53
2022-08-04T06:23:53.246Z,53
2022-08-04T06:24:32.200Z,52
2022-08-04T06:25:18.393Z,52
2022-08-04T06:26:04.050Z,51
2022-08-04T06:26:50.078Z,51
2022-08-04T06:27:36.227Z,53
2022-08-04T06:28:22.016Z,52
2022-08-04T06:29:08.092Z,51
2022-08-04T06:29:54.059Z,51
2022-08-04T06:30:40.117Z,51
2022-08-04T06:32:31.491Z,51
2022-08-04T06:33:04.239Z,49
2022-08-04T06:33:54.374Z,48
2022-08-04T06:34:30.045Z,49
2022-08-04T06:35:16.128Z,48
2022-08-04T06:36:02.176Z,49
2022-08-04T06:36:48.066Z,49
2022-08-04T06:37:42.086Z,49
2022-08-04T06:38:21.122Z,48
2022-08-04T06:39:06.238Z,47
2022-08-04T06:39:52.064Z,47
2022-08-04T06:40:38.159Z,50
2022-08-04T06:41:24.126Z,47
2022-08-04T06:42:17.315Z,47
2022-08-04T06:42:56.097Z,48
2022-08-04T06:43:42.961Z,47
2022-08-04T06:44:28.109Z,48
2022-08-04T06:45:14.227Z,48
2022-08-04T06:46:00.194Z,47
2022-08-04T06:46:46.143Z,46
2022-08-04T06:47:32.214Z,46
2022-08-04T06:48:18.113Z,46
2022-08-04T06:49:04.122Z,46
2022-08-04T06:51:28.107Z,45
2022-08-04T06:52:08.223Z,45
2022-08-04T06:52:54.126Z,45
2022-08-04T06:53:40.127Z,46
2022-08-04T06:54:26.060Z,46
2022-08-04T06:55:12.445Z,46
2022-08-04T06:55:58.108Z,45
2022-08-04T06:56:44.230Z,47
2022-08-04T06:57:30.175Z,46
2022-08-04T06:58:16.154Z,46
2022-08-04T06:59:02.187Z,45
2022-08-04T06:59:48.110Z,44
2022-08-04T07:00:34.163Z,43
2022-08-04T07:01:20.235Z,43
2022-08-04T07:02:06.215Z,43
2022-08-04T07:02:52.169Z,45
2022-08-04T07:03:38.134Z,44
2022-08-04T07:04:24.141Z,44
2022-08-04T07:05:10.169Z,44
2022-08-04T07:05:56.139Z,44
2022-08-04T07:06:42.412Z,44
2022-08-04T07:07:33.731Z,44
2022-08-04T07:08:14.220Z,42
2022-08-04T07:09:00.225Z,43
2022-08-04T07:09:46.376Z,43
2022-08-04T07:10:32.312Z,43
2022-08-04T07:11:18.147Z,42
2022-08-04T07:12:04.107Z,41
2022-08-04T07:12:50.181Z,41
2022-08-04T07:13:36.224Z,41
2022-08-04T07:14:22.361Z,41
2022-08-04T07:15:08.337Z,40
2022-08-04T07:15:54.174Z,40
2022-08-04T07:16:40.157Z,40
2022-08-04T07:17:28.851Z,42
2022-08-04T07:18:12.374Z,40
2022-08-04T07:18:58.142Z,39
2022-08-04T07:19:44.293Z,40
2022-08-04T07:20:35.874Z,39
2022-08-04T07:21:16.240Z,39
2022-08-04T07:22:24.418Z,39
2022-08-04T07:22:48.163Z,38
2022-08-04T07:23:34.161Z,38
2022-08-04T07:24:20.269Z,38
2022-08-04T07:25:09.903Z,38
2022-08-04T07:26:11.175Z,37
2022-08-04T07:26:38.287Z,37
2022-08-04T07:27:48.490Z,39
2022-08-04T07:28:10.152Z,38
2022-08-04T07:28:56.165Z,39
2022-08-04T07:29:42.512Z,38
2022-08-04T07:30:28.253Z,37
2022-08-04T07:31:33.221Z,38
2022-08-04T07:32:00.188Z,38
2022-08-04T07:32:46.304Z,38
2022-08-04T07:33:37.377Z,37
2022-08-04T07:34:22.221Z,37
2022-08-04T07:35:04.254Z,35
2022-08-04T07:36:10.583Z,35
2022-08-04T07:36:49.943Z,36
2022-08-04T07:37:22.475Z,35
2022-08-04T07:38:09.570Z,34
2022-08-04T07:38:54.296Z,34
2022-08-04T07:39:47.693Z,34
2022-08-04T07:40:26.272Z,34
2022-08-04T07:41:36.421Z,34
2022-08-04T07:41:58.187Z,35
2022-08-04T07:42:44.374Z,36
2022-08-04T07:43:30.188Z,35
2022-08-04T07:44:16.301Z,33
2022-08-04T07:45:02.502Z,34
2022-08-04T07:45:48.254Z,33
2022-08-04T07:46:34.227Z,33
2022-08-04T07:47:25.133Z,34
2022-08-04T07:48:06.291Z,34
2022-08-04T07:48:52.272Z,35
2022-08-04T07:49:55.373Z,34
2022-08-04T07:50:24.259Z,35
2022-08-04T07:51:10.245Z,34
2022-08-04T07:51:57.747Z,35
2022-08-04T07:53:03.623Z,34
2022-08-04T07:53:54.910Z,34
2022-08-04T07:54:14.222Z,36
2022-08-04T07:55:00.260Z,35
2022-08-04T07:55:46.285Z,34
2022-08-04T07:56:32.474Z,34
2022-08-04T07:57:19.399Z,34
2022-08-04T07:58:11.538Z,34
2022-08-04T07:58:50.647Z,34
2022-08-04T07:59:36.404Z,35
2022-08-04T08:00:22.376Z,35
2022-08-04T08:01:08.357Z,35
2022-08-04T08:02:04.332Z,35
2022-08-04T08:02:40.232Z,35
2022-08-04T08:03:26.385Z,35
2022-08-04T08:04:12.560Z,34
2022-08-04T08:05:03.290Z,34
2022-08-04T08:05:54.882Z,34
2022-08-04T08:06:32.400Z,36
2022-08-04T08:07:16.282Z,34
2022-08-04T08:08:02.486Z,36
2022-08-04T08:08:48.374Z,34
2022-08-04T08:09:34.312Z,34
2022-08-04T08:10:20.383Z,35
2022-08-04T08:11:06.296Z,35
2022-08-04T08:12:36.347Z,33
2022-08-04T08:13:24.301Z,34
2022-08-04T08:14:10.401Z,33
2022-08-04T08:14:56.262Z,35
2022-08-04T08:15:42.684Z,34
2022-08-04T08:16:28.335Z,35
2022-08-04T08:17:14.266Z,35
2022-08-04T08:18:00.904Z,36
2022-08-04T08:18:49.976Z,36
2022-08-04T08:19:32.362Z,36
2022-08-04T08:20:29.791Z,36
2022-08-04T08:21:04.174Z,36
2022-08-04T08:21:59.148Z,37
2022-08-04T08:22:36.338Z,36
2022-08-04T08:23:22.192Z,36
2022-08-04T08:24:12.814Z,36
2022-08-04T08:24:54.269Z,38
2022-08-04T08:25:40.293Z,38
2022-08-04T08:26:26.227Z,39
2022-08-04T08:27:12.402Z,38
2022-08-04T08:27:58.354Z,37
2022-08-04T08:28:44.406Z,38
2022-08-04T08:29:30.231Z,38
2022-08-04T08:30:16.372Z,37
2022-08-04T08:31:02.277Z,38
2022-08-04T08:31:55.412Z,37
2022-08-04T08:32:34.223Z,38
2022-08-04T08:33:20.289Z,39
2022-08-04T08:34:06.258Z,38
2022-08-04T08:34:52.245Z,40
2022-08-04T08:35:46.856Z,39
2022-08-04T08:37:15.516Z,38
2022-08-04T08:37:56.379Z,40
2022-08-04T08:38:42.512Z,39
2022-08-04T08:39:28.345Z,39
2022-08-04T08:40:14.245Z,40
2022-08-04T08:41:00.241Z,39
2022-08-04T08:41:46.335Z,39
2022-08-04T08:42:32.437Z,38
2022-08-04T08:44:05.823Z,39
2022-08-04T08:44:52.901Z,40
2022-08-04T08:45:36.483Z,39
2022-08-04T08:46:45.361Z,40
2022-08-04T08:47:08.390Z,39
2022-08-04T08:48:06.321Z,39
2022-08-04T08:48:40.288Z,39
2022-08-04T08:50:00.822Z,38
2022-08-04T08:50:13.706Z,41
2022-08-04T08:50:58.303Z,38
2022-08-04T08:51:47.373Z,39
2022-08-04T08:53:01.439Z,38
2022-08-04T08:53:16.289Z,39
2022-08-04T08:54:02.281Z,39
2022-08-04T08:54:48.288Z,39
2022-08-04T08:55:34.367Z,39
2022-08-04T08:56:31.449Z,39
2022-08-04T08:57:06.342Z,39
2022-08-04T08:58:00.160Z,39
2022-08-04T08:58:38.450Z,39
2022-08-04T08:59:24.336Z,39
2022-08-04T09:00:10.425Z,39
2022-08-04T09:01:11.718Z,40
2022-08-04T09:01:42.750Z,39
2022-08-04T09:02:28.295Z,38
2022-08-04T09:03:14.327Z,39
2022-08-04T09:04:00.399Z,41
2022-08-04T09:04:46.357Z,39
2022-08-04T09:05:32.475Z,38
2022-08-04T09:06:18.402Z,39
2022-08-04T09:07:04.433Z,39
2022-08-04T09:07:50.343Z,40
2022-08-04T09:08:36.402Z,39
2022-08-04T09:09:22.390Z,38
2022-08-04T09:10:08.375Z,38
2022-08-04T09:10:54.350Z,39
2022-08-04T09:11:40.326Z,38
2022-08-04T09:12:26.442Z,38
2022-08-04T09:13:12.567Z,37
2022-08-04T09:13:58.370Z,37
2022-08-04T09:14:44.415Z,38
2022-08-04T09:15:30.473Z,38
2022-08-04T09:16:16.422Z,37
2022-08-04T09:17:02.350Z,38
2022-08-04T09:17:48.473Z,38
2022-08-04T09:18:34.435Z,39
2022-08-04T09:19:37.385Z,38
2022-08-04T09:20:06.360Z,38
2022-08-04T09:20:52.368Z,39
2022-08-04T09:21:38.445Z,38
2022-08-04T09:22:39.816Z,38
2022-08-04T09:23:10.447Z,37
2022-08-04T09:23:56.440Z,37
2022-08-04T09:24:42.721Z,37
2022-08-04T09:25:28.416Z,37
2022-08-04T09:26:14.389Z,37
2022-08-04T09:27:00.640Z,37
2022-08-04T09:27:46.392Z,37
2022-08-04T09:28:52.741Z,38
2022-08-04T09:29:18.375Z,38
2022-08-04T09:30:04.500Z,37
2022-08-04T09:30:50.497Z,37
2022-08-04T09:31:51.762Z,37
2022-08-04T09:32:22.385Z,37
2022-08-04T09:33:08.542Z,37
2022-08-04T09:33:54.543Z,37
2022-08-04T09:34:40.450Z,37
2022-08-04T09:35:26.506Z,39
2022-08-04T09:36:12.639Z,38
2022-08-04T09:36:58.473Z,38
2022-08-04T09:37:46.433Z,38
2022-08-04T09:38:30.393Z,40
2022-08-04T09:39:16.572Z,37
2022-08-04T09:40:02.615Z,38
2022-08-04T09:40:53.565Z,36
2022-08-04T09:41:48.162Z,36
2022-08-04T09:42:23.936Z,35
2022-08-04T09:43:06.463Z,35
2022-08-04T09:43:58.721Z,35
2022-08-04T09:45:26.125Z,36
2022-08-04T09:46:10.464Z,36
2022-08-04T09:46:56.414Z,35
2022-08-04T09:47:42.690Z,35
2022-08-04T09:48:28.425Z,35
2022-08-04T09:49:14.481Z,35
2022-08-04T09:50:00.481Z,36
2022-08-04T09:50:50.243Z,35
2022-08-04T09:51:58.588Z,35
2022-08-04T09:52:33.852Z,34
2022-08-04T09:53:04.495Z,34
2022-08-04T09:53:51.566Z,34
2022-08-04T09:54:36.505Z,35
2022-08-04T09:55:22.493Z,34
2022-08-04T09:56:08.584Z,35
2022-08-04T09:56:54.540Z,34
2022-08-04T09:57:40.471Z,34
2022-08-04T09:58:26.500Z,35
2022-08-04T09:59:14.032Z,35
2022-08-04T09:59:58.501Z,34
2022-08-04T10:00:44.682Z,34
2022-08-04T10:01:30.527Z,35
2022-08-04T10:02:16.490Z,34
2022-08-04T10:03:02.732Z,33
2022-08-04T10:03:48.478Z,35
2022-08-04T10:04:34.563Z,35
2022-08-04T10:05:20.494Z,34
2022-08-04T10:06:06.512Z,36
2022-08-04T10:06:52.488Z,35
2022-08-04T10:07:38.608Z,34
2022-08-04T10:08:24.537Z,33
2022-08-04T10:09:10.589Z,33
2022-08-04T10:09:56.480Z,33
2022-08-04T10:10:42.747Z,33
2022-08-04T10:11:28.586Z,33
2022-08-04T10:12:14.624Z,33
2022-08-04T10:13:00.561Z,33
2022-08-04T10:13:46.617Z,33
2022-08-04T10:14:32.633Z,34
2022-08-04T10:15:18.630Z,32
2022-08-04T10:16:04.571Z,33
2022-08-04T10:16:50.501Z,33
2022-08-04T10:17:36.541Z,34
2022-08-04T10:18:22.506Z,32
2022-08-04T10:19:08.691Z,34
2022-08-04T10:19:54.505Z,36
2022-08-04T10:20:46.461Z,33
2022-08-04T10:21:29.644Z,32
2022-08-04T10:22:28.025Z,31
2022-08-04T10:23:11.136Z,32
2022-08-04T10:23:55.091Z,32
2022-08-04T10:24:30.677Z,32
2022-08-04T10:26:03.032Z,31
2022-08-04T10:26:48.763Z,31
2022-08-04T10:27:34.694Z,32
2022-08-04T10:28:20.798Z,31
2022-08-04T10:29:06.689Z,32
2022-08-04T10:29:52.675Z,33
2022-08-04T10:30:38.820Z,30
2022-08-04T10:31:24.723Z,31
2022-08-04T10:32:10.701Z,31
2022-08-04T10:33:03.817Z,31
2022-08-04T10:34:33.739Z,32
2022-08-04T10:35:14.721Z,30
2022-08-04T10:36:00.870Z,30
2022-08-04T10:36:46.786Z,31
2022-08-04T10:37:59.489Z,30
2022-08-04T10:38:21.816Z,30
2022-08-04T10:39:04.771Z,30
2022-08-04T10:39:50.787Z,32
2022-08-04T10:40:36.800Z,34
2022-08-04T10:41:22.777Z,30
2022-08-04T10:42:08.974Z,30
2022-08-04T10:42:54.689Z,29
2022-08-04T10:43:40.750Z,29
2022-08-04T10:44:26.695Z,29
2022-08-04T10:45:13.044Z,30
2022-08-04T10:45:58.747Z,29
2022-08-04T10:46:44.796Z,29
2022-08-04T10:47:30.706Z,29
2022-08-04T10:48:16.778Z,29
2022-08-04T10:49:02.747Z,31
2022-08-04T10:49:48.752Z,30
2022-08-04T10:50:34.749Z,30
2022-08-04T10:51:20.750Z,29
2022-08-04T10:52:06.775Z,30
2022-08-04T10:52:52.810Z,30
2022-08-04T10:53:38.837Z,29
2022-08-04T10:54:24.794Z,30
2022-08-04T10:55:10.756Z,29
2022-08-04T10:56:05.705Z,31
2022-08-04T10:56:42.998Z,30
2022-08-04T10:57:28.776Z,28
2022-08-04T10:58:14.849Z,29
2022-08-04T10:59:00.712Z,29
2022-08-04T12:32:14.839Z,26
2022-08-04T12:38:40.908Z,26
2022-08-04T12:39:27.052Z,25
2022-08-04T12:40:29.060Z,25
2022-08-04T12:40:58.905Z,25
2022-08-04T12:41:45.033Z,26
2022-08-04T12:42:30.957Z,25
2022-08-04T12:43:16.991Z,26
2022-08-04T12:44:03.018Z,25
2022-08-04T12:44:48.886Z,25
2022-08-04T12:45:35.113Z,26
2022-08-04T12:46:21.028Z,26
2022-08-04T12:47:28.043Z,26